sensor_id;sensor_type;location;lat;lon;timestamp;P1;durP1;ratioP1;P2;durP2;ratioP2
49834;SDS011;35729;52.090;13.162;2023-04-15T00:01:06;56.97;;;23.67;;
49834;SDS011;35729;52.090;13.162;2023-04-15T00:03:35;64.93;;;25.77;;
49834;SDS011;35729;52.090;13.162;2023-04-15T00:06:04;59.13;;;25.40;;
49834;SDS011;35729;52.090;13.162;2023-04-15T00:08:35;64.18;;;25.75;;
49834;SDS011;35729;52.090;13.162;2023-04-15T00:11:03;65.50;;;27.55;;
49834;SDS011;35729;52.090;13.162;2023-04-15T00:13:32;68.15;;;28.23;;
49834;SDS011;35729;52.090;13.162;2023-04-15T00:16:00;71.18;;;28.25;;
49834;SDS011;35729;52.090;13.162;2023-04-15T00:18:29;70.47;;;28.80;;
49834;SDS011;35729;52.090;13.162;2023-04-15T00:20:57;72.72;;;28.27;;
49834;SDS011;35729;52.090;13.162;2023-04-15T00:23:27;73.22;;;29.60;;
49834;SDS011;35729;52.090;13.162;2023-04-15T00:25:58;75.32;;;30.63;;
49834;SDS011;35729;52.090;13.162;2023-04-15T00:28:26;73.00;;;30.73;;
49834;SDS011;35729;52.090;13.162;2023-04-15T00:30:55;75.78;;;30.10;;
49834;SDS011;35729;52.090;13.162;2023-04-15T00:33:23;73.35;;;29.63;;
49834;SDS011;35729;52.090;13.162;2023-04-15T00:35:52;71.10;;;29.42;;
49834;SDS011;35729;52.090;13.162;2023-04-15T00:38:20;79.28;;;30.27;;
49834;SDS011;35729;52.090;13.162;2023-04-15T00:40:49;74.40;;;30.65;;
49834;SDS011;35729;52.090;13.162;2023-04-15T00:43:20;78.75;;;30.90;;
49834;SDS011;35729;52.090;13.162;2023-04-15T00:45:50;80.30;;;31.85;;
49834;SDS011;35729;52.090;13.162;2023-04-15T00:48:20;79.95;;;31.15;;
49834;SDS011;35729;52.090;13.162;2023-04-15T00:50:48;77.35;;;30.95;;
49834;SDS011;35729;52.090;13.162;2023-04-15T00:53:17;84.70;;;31.60;;
49834;SDS011;35729;52.090;13.162;2023-04-15T00:55:45;85.20;;;31.90;;
49834;SDS011;35729;52.090;13.162;2023-04-15T00:58:14;83.45;;;31.58;;
49834;SDS011;35729;52.090;13.162;2023-04-15T01:00:45;86.45;;;32.90;;
49834;SDS011;35729;52.090;13.162;2023-04-15T01:03:18;78.40;;;31.83;;
49834;SDS011;35729;52.090;13.162;2023-04-15T01:05:46;82.07;;;32.88;;
49834;SDS011;35729;52.090;13.162;2023-04-15T01:08:17;85.88;;;32.25;;
49834;SDS011;35729;52.090;13.162;2023-04-15T01:10:45;84.32;;;32.10;;
49834;SDS011;35729;52.090;13.162;2023-04-15T01:13:13;86.35;;;32.88;;
49834;SDS011;35729;52.090;13.162;2023-04-15T01:15:42;88.93;;;33.22;;
49834;SDS011;35729;52.090;13.162;2023-04-15T01:18:13;84.43;;;32.88;;
49834;SDS011;35729;52.090;13.162;2023-04-15T01:20:42;84.72;;;33.13;;
49834;SDS011;35729;52.090;13.162;2023-04-15T01:23:11;82.45;;;32.72;;
49834;SDS011;35729;52.090;13.162;2023-04-15T01:25:43;86.25;;;34.35;;
49834;SDS011;35729;52.090;13.162;2023-04-15T01:28:13;87.97;;;35.28;;
49834;SDS011;35729;52.090;13.162;2023-04-15T01:30:42;95.05;;;34.97;;
49834;SDS011;35729;52.090;13.162;2023-04-15T01:33:10;80.75;;;33.30;;
49834;SDS011;35729;52.090;13.162;2023-04-15T01:35:38;86.90;;;34.55;;
49834;SDS011;35729;52.090;13.162;2023-04-15T01:38:08;82.50;;;32.45;;
49834;SDS011;35729;52.090;13.162;2023-04-15T01:40:38;83.57;;;33.65;;
49834;SDS011;35729;52.090;13.162;2023-04-15T01:43:09;91.60;;;34.55;;
49834;SDS011;35729;52.090;13.162;2023-04-15T01:45:37;88.07;;;33.92;;
49834;SDS011;35729;52.090;13.162;2023-04-15T01:48:06;90.20;;;34.47;;
49834;SDS011;35729;52.090;13.162;2023-04-15T01:50:34;90.97;;;33.83;;
49834;SDS011;35729;52.090;13.162;2023-04-15T01:53:03;90.28;;;34.13;;
49834;SDS011;35729;52.090;13.162;2023-04-15T01:55:32;84.60;;;34.17;;
49834;SDS011;35729;52.090;13.162;2023-04-15T01:58:01;92.88;;;35.38;;
49834;SDS011;35729;52.090;13.162;2023-04-15T02:00:38;92.03;;;34.22;;
49834;SDS011;35729;52.090;13.162;2023-04-15T02:03:07;81.13;;;33.85;;
49834;SDS011;35729;52.090;13.162;2023-04-15T02:05:35;83.80;;;34.10;;
49834;SDS011;35729;52.090;13.162;2023-04-15T02:08:04;81.20;;;33.20;;
49834;SDS011;35729;52.090;13.162;2023-04-15T02:10:32;88.97;;;35.70;;
49834;SDS011;35729;52.090;13.162;2023-04-15T02:13:00;83.93;;;33.92;;
49834;SDS011;35729;52.090;13.162;2023-04-15T02:15:29;86.85;;;34.20;;
49834;SDS011;35729;52.090;13.162;2023-04-15T02:18:00;85.78;;;34.40;;
49834;SDS011;35729;52.090;13.162;2023-04-15T02:20:35;85.03;;;34.17;;
49834;SDS011;35729;52.090;13.162;2023-04-15T02:23:03;85.60;;;34.38;;
49834;SDS011;35729;52.090;13.162;2023-04-15T02:25:32;83.78;;;33.85;;
49834;SDS011;35729;52.090;13.162;2023-04-15T02:28:01;92.97;;;35.47;;
49834;SDS011;35729;52.090;13.162;2023-04-15T02:30:30;86.50;;;34.80;;
49834;SDS011;35729;52.090;13.162;2023-04-15T02:33:01;83.60;;;33.70;;
49834;SDS011;35729;52.090;13.162;2023-04-15T02:35:30;92.45;;;36.08;;
49834;SDS011;35729;52.090;13.162;2023-04-15T02:37:58;98.65;;;36.03;;
49834;SDS011;35729;52.090;13.162;2023-04-15T02:40:27;91.78;;;35.90;;
49834;SDS011;35729;52.090;13.162;2023-04-15T02:42:55;97.60;;;37.05;;
49834;SDS011;35729;52.090;13.162;2023-04-15T02:45:24;92.60;;;35.83;;
49834;SDS011;35729;52.090;13.162;2023-04-15T02:47:53;92.78;;;36.30;;
49834;SDS011;35729;52.090;13.162;2023-04-15T02:50:24;89.53;;;36.65;;
49834;SDS011;35729;52.090;13.162;2023-04-15T02:52:52;98.82;;;38.28;;
49834;SDS011;35729;52.090;13.162;2023-04-15T02:55:21;100.00;;;40.08;;
49834;SDS011;35729;52.090;13.162;2023-04-15T02:57:50;102.78;;;40.00;;
49834;SDS011;35729;52.090;13.162;2023-04-15T03:00:18;100.13;;;39.30;;
49834;SDS011;35729;52.090;13.162;2023-04-15T03:02:49;103.40;;;40.40;;
49834;SDS011;35729;52.090;13.162;2023-04-15T03:05:20;110.28;;;41.85;;
49834;SDS011;35729;52.090;13.162;2023-04-15T03:07:52;105.95;;;40.78;;
49834;SDS011;35729;52.090;13.162;2023-04-15T03:10:20;106.97;;;41.30;;
49834;SDS011;35729;52.090;13.162;2023-04-15T03:12:49;104.82;;;41.13;;
49834;SDS011;35729;52.090;13.162;2023-04-15T03:15:18;113.95;;;43.10;;
49834;SDS011;35729;52.090;13.162;2023-04-15T03:17:46;118.68;;;43.53;;
49834;SDS011;35729;52.090;13.162;2023-04-15T03:20:15;110.57;;;43.72;;
49834;SDS011;35729;52.090;13.162;2023-04-15T03:22:46;113.45;;;44.60;;
49834;SDS011;35729;52.090;13.162;2023-04-15T03:25:14;118.07;;;45.70;;
49834;SDS011;35729;52.090;13.162;2023-04-15T03:27:43;120.65;;;44.47;;
49834;SDS011;35729;52.090;13.162;2023-04-15T03:30:12;126.20;;;46.85;;
49834;SDS011;35729;52.090;13.162;2023-04-15T03:32:40;121.32;;;47.10;;
49834;SDS011;35729;52.090;13.162;2023-04-15T03:35:09;131.60;;;48.97;;
49834;SDS011;35729;52.090;13.162;2023-04-15T03:37:37;131.93;;;46.50;;
49834;SDS011;35729;52.090;13.162;2023-04-15T03:40:09;130.65;;;49.60;;
49834;SDS011;35729;52.090;13.162;2023-04-15T03:42:38;133.18;;;49.00;;
49834;SDS011;35729;52.090;13.162;2023-04-15T03:45:07;132.43;;;48.45;;
49834;SDS011;35729;52.090;13.162;2023-04-15T03:47:36;139.95;;;49.30;;
49834;SDS011;35729;52.090;13.162;2023-04-15T03:50:05;127.15;;;49.50;;
49834;SDS011;35729;52.090;13.162;2023-04-15T03:52:34;139.10;;;52.08;;
49834;SDS011;35729;52.090;13.162;2023-04-15T03:55:03;135.85;;;51.30;;
49834;SDS011;35729;52.090;13.162;2023-04-15T03:57:35;134.45;;;50.47;;
49834;SDS011;35729;52.090;13.162;2023-04-15T04:00:04;132.13;;;49.80;;
49834;SDS011;35729;52.090;13.162;2023-04-15T04:02:33;135.73;;;49.88;;
49834;SDS011;35729;52.090;13.162;2023-04-15T04:05:02;151.40;;;54.03;;
49834;SDS011;35729;52.090;13.162;2023-04-15T04:07:31;140.63;;;50.10;;
49834;SDS011;35729;52.090;13.162;2023-04-15T04:09:59;149.73;;;53.10;;
49834;SDS011;35729;52.090;13.162;2023-04-15T04:12:37;144.95;;;53.40;;
49834;SDS011;35729;52.090;13.162;2023-04-15T04:15:06;140.10;;;50.47;;
49834;SDS011;35729;52.090;13.162;2023-04-15T04:17:35;141.60;;;51.15;;
49834;SDS011;35729;52.090;13.162;2023-04-15T04:20:04;137.77;;;51.38;;
49834;SDS011;35729;52.090;13.162;2023-04-15T04:22:36;134.57;;;51.25;;
49834;SDS011;35729;52.090;13.162;2023-04-15T04:25:05;142.70;;;52.60;;
49834;SDS011;35729;52.090;13.162;2023-04-15T04:27:38;145.35;;;51.67;;
49834;SDS011;35729;52.090;13.162;2023-04-15T04:30:07;143.20;;;52.30;;
49834;SDS011;35729;52.090;13.162;2023-04-15T04:32:36;155.25;;;54.42;;
49834;SDS011;35729;52.090;13.162;2023-04-15T04:35:04;145.20;;;52.47;;
49834;SDS011;35729;52.090;13.162;2023-04-15T04:37:33;138.95;;;52.83;;
49834;SDS011;35729;52.090;13.162;2023-04-15T04:40:02;145.88;;;52.75;;
49834;SDS011;35729;52.090;13.162;2023-04-15T04:42:32;146.55;;;53.03;;
49834;SDS011;35729;52.090;13.162;2023-04-15T04:45:03;149.57;;;53.72;;
49834;SDS011;35729;52.090;13.162;2023-04-15T04:47:32;148.25;;;53.80;;
49834;SDS011;35729;52.090;13.162;2023-04-15T04:50:01;148.55;;;54.50;;
49834;SDS011;35729;52.090;13.162;2023-04-15T04:52:30;148.50;;;53.38;;
49834;SDS011;35729;52.090;13.162;2023-04-15T04:54:58;147.05;;;55.95;;
49834;SDS011;35729;52.090;13.162;2023-04-15T04:57:27;142.60;;;54.35;;
49834;SDS011;35729;52.090;13.162;2023-04-15T04:59:55;140.50;;;54.47;;
49834;SDS011;35729;52.090;13.162;2023-04-15T05:02:26;141.45;;;52.92;;
49834;SDS011;35729;52.090;13.162;2023-04-15T05:04:55;136.80;;;53.55;;
49834;SDS011;35729;52.090;13.162;2023-04-15T05:07:23;137.27;;;53.42;;
49834;SDS011;35729;52.090;13.162;2023-04-15T05:09:52;143.20;;;52.92;;
49834;SDS011;35729;52.090;13.162;2023-04-15T05:12:20;139.07;;;52.67;;
49834;SDS011;35729;52.090;13.162;2023-04-15T05:14:49;141.45;;;53.63;;
49834;SDS011;35729;52.090;13.162;2023-04-15T05:17:18;140.00;;;51.67;;
49834;SDS011;35729;52.090;13.162;2023-04-15T05:19:49;133.32;;;51.67;;
49834;SDS011;35729;52.090;13.162;2023-04-15T05:22:18;141.75;;;53.75;;
49834;SDS011;35729;52.090;13.162;2023-04-15T05:24:46;135.35;;;53.42;;
49834;SDS011;35729;52.090;13.162;2023-04-15T05:27:14;134.30;;;53.58;;
49834;SDS011;35729;52.090;13.162;2023-04-15T05:29:43;131.07;;;51.05;;
49834;SDS011;35729;52.090;13.162;2023-04-15T05:32:11;130.23;;;54.58;;
49834;SDS011;35729;52.090;13.162;2023-04-15T05:34:40;135.82;;;53.13;;
49834;SDS011;35729;52.090;13.162;2023-04-15T05:37:11;129.05;;;52.13;;
49834;SDS011;35729;52.090;13.162;2023-04-15T05:39:40;128.07;;;52.25;;
49834;SDS011;35729;52.090;13.162;2023-04-15T05:42:08;132.05;;;53.67;;
49834;SDS011;35729;52.090;13.162;2023-04-15T05:44:37;125.55;;;52.80;;
49834;SDS011;35729;52.090;13.162;2023-04-15T05:47:05;126.45;;;51.25;;
49834;SDS011;35729;52.090;13.162;2023-04-15T05:49:35;118.47;;;50.90;;
49834;SDS011;35729;52.090;13.162;2023-04-15T05:52:03;119.68;;;50.05;;
49834;SDS011;35729;52.090;13.162;2023-04-15T05:54:34;119.40;;;50.67;;
49834;SDS011;35729;52.090;13.162;2023-04-15T05:57:03;110.53;;;49.10;;
49834;SDS011;35729;52.090;13.162;2023-04-15T05:59:32;118.32;;;48.03;;
49834;SDS011;35729;52.090;13.162;2023-04-15T06:02:01;105.25;;;48.47;;
49834;SDS011;35729;52.090;13.162;2023-04-15T06:04:29;97.00;;;47.47;;
49834;SDS011;35729;52.090;13.162;2023-04-15T06:06:58;112.40;;;47.95;;
49834;SDS011;35729;52.090;13.162;2023-04-15T06:09:26;101.55;;;45.78;;
49834;SDS011;35729;52.090;13.162;2023-04-15T06:11:58;100.20;;;45.53;;
49834;SDS011;35729;52.090;13.162;2023-04-15T06:14:27;92.97;;;44.42;;
49834;SDS011;35729;52.090;13.162;2023-04-15T06:16:55;81.60;;;41.08;;
49834;SDS011;35729;52.090;13.162;2023-04-15T06:19:24;88.30;;;44.53;;
49834;SDS011;35729;52.090;13.162;2023-04-15T06:21:52;86.65;;;42.70;;
49834;SDS011;35729;52.090;13.162;2023-04-15T06:24:21;84.07;;;44.03;;
49834;SDS011;35729;52.090;13.162;2023-04-15T06:26:49;80.53;;;42.55;;
49834;SDS011;35729;52.090;13.162;2023-04-15T06:29:20;88.57;;;41.63;;
49834;SDS011;35729;52.090;13.162;2023-04-15T06:31:49;76.38;;;40.60;;
49834;SDS011;35729;52.090;13.162;2023-04-15T06:34:18;75.88;;;42.40;;
49834;SDS011;35729;52.090;13.162;2023-04-15T06:36:46;70.13;;;39.55;;
49834;SDS011;35729;52.090;13.162;2023-04-15T06:39:15;67.65;;;39.80;;
49834;SDS011;35729;52.090;13.162;2023-04-15T06:41:43;66.57;;;38.08;;
49834;SDS011;35729;52.090;13.162;2023-04-15T06:44:12;61.35;;;37.08;;
49834;SDS011;35729;52.090;13.162;2023-04-15T06:46:43;56.55;;;36.90;;
49834;SDS011;35729;52.090;13.162;2023-04-15T06:49:11;53.25;;;34.17;;
49834;SDS011;35729;52.090;13.162;2023-04-15T06:51:41;51.17;;;34.38;;
49834;SDS011;35729;52.090;13.162;2023-04-15T06:54:09;57.97;;;35.95;;
49834;SDS011;35729;52.090;13.162;2023-04-15T06:56:38;48.20;;;32.97;;
49834;SDS011;35729;52.090;13.162;2023-04-15T06:59:06;48.15;;;33.13;;
49834;SDS011;35729;52.090;13.162;2023-04-15T07:01:35;41.47;;;29.95;;
49834;SDS011;35729;52.090;13.162;2023-04-15T07:04:06;40.33;;;30.02;;
49834;SDS011;35729;52.090;13.162;2023-04-15T07:06:35;39.28;;;29.20;;
49834;SDS011;35729;52.090;13.162;2023-04-15T07:09:03;36.55;;;27.30;;
49834;SDS011;35729;52.090;13.162;2023-04-15T07:11:32;38.78;;;28.13;;
49834;SDS011;35729;52.090;13.162;2023-04-15T07:14:01;37.90;;;28.20;;
49834;SDS011;35729;52.090;13.162;2023-04-15T07:16:30;35.40;;;27.05;;
49834;SDS011;35729;52.090;13.162;2023-04-15T07:18:59;37.67;;;26.92;;
49834;SDS011;35729;52.090;13.162;2023-04-15T07:21:30;35.40;;;27.00;;
49834;SDS011;35729;52.090;13.162;2023-04-15T07:23:59;35.10;;;26.65;;
49834;SDS011;35729;52.090;13.162;2023-04-15T07:26:28;33.95;;;25.75;;
49834;SDS011;35729;52.090;13.162;2023-04-15T07:28:56;34.15;;;25.98;;
49834;SDS011;35729;52.090;13.162;2023-04-15T07:31:25;30.05;;;23.98;;
49834;SDS011;35729;52.090;13.162;2023-04-15T07:33:53;30.73;;;23.42;;
49834;SDS011;35729;52.090;13.162;2023-04-15T07:36:22;30.88;;;24.45;;
49834;SDS011;35729;52.090;13.162;2023-04-15T07:38:53;29.08;;;23.08;;
49834;SDS011;35729;52.090;13.162;2023-04-15T07:41:22;31.40;;;23.55;;
49834;SDS011;35729;52.090;13.162;2023-04-15T07:43:50;28.83;;;22.63;;
49834;SDS011;35729;52.090;13.162;2023-04-15T07:46:19;28.92;;;23.73;;
49834;SDS011;35729;52.090;13.162;2023-04-15T07:48:48;28.38;;;23.20;;
49834;SDS011;35729;52.090;13.162;2023-04-15T07:51:17;30.52;;;23.13;;
49834;SDS011;35729;52.090;13.162;2023-04-15T07:53:46;27.63;;;22.63;;
49834;SDS011;35729;52.090;13.162;2023-04-15T07:56:17;26.80;;;22.55;;
49834;SDS011;35729;52.090;13.162;2023-04-15T07:58:46;30.20;;;23.02;;
49834;SDS011;35729;52.090;13.162;2023-04-15T08:01:21;26.65;;;22.45;;
49834;SDS011;35729;52.090;13.162;2023-04-15T08:03:49;25.60;;;21.42;;
49834;SDS011;35729;52.090;13.162;2023-04-15T08:06:19;28.23;;;22.35;;
49834;SDS011;35729;52.090;13.162;2023-04-15T08:08:47;28.40;;;22.85;;
49834;SDS011;35729;52.090;13.162;2023-04-15T08:11:18;25.15;;;21.73;;
49834;SDS011;35729;52.090;13.162;2023-04-15T08:13:47;25.60;;;21.70;;
49834;SDS011;35729;52.090;13.162;2023-04-15T08:16:16;24.85;;;21.70;;
49834;SDS011;35729;52.090;13.162;2023-04-15T08:18:46;23.30;;;20.77;;
49834;SDS011;35729;52.090;13.162;2023-04-15T08:21:16;25.00;;;21.02;;
49834;SDS011;35729;52.090;13.162;2023-04-15T08:23:46;23.95;;;20.35;;
49834;SDS011;35729;52.090;13.162;2023-04-15T08:26:19;25.02;;;21.27;;
49834;SDS011;35729;52.090;13.162;2023-04-15T08:28:48;24.50;;;20.55;;
49834;SDS011;35729;52.090;13.162;2023-04-15T08:31:17;24.40;;;20.20;;
49834;SDS011;35729;52.090;13.162;2023-04-15T08:33:46;22.95;;;20.25;;
49834;SDS011;35729;52.090;13.162;2023-04-15T08:36:16;26.80;;;21.38;;
49834;SDS011;35729;52.090;13.162;2023-04-15T08:38:44;25.17;;;20.75;;
49834;SDS011;35729;52.090;13.162;2023-04-15T08:41:17;26.20;;;20.52;;
49834;SDS011;35729;52.090;13.162;2023-04-15T08:43:52;28.05;;;22.52;;
49834;SDS011;35729;52.090;13.162;2023-04-15T08:46:23;25.30;;;20.38;;
49834;SDS011;35729;52.090;13.162;2023-04-15T08:48:53;24.42;;;20.27;;
49834;SDS011;35729;52.090;13.162;2023-04-15T08:51:25;24.20;;;20.90;;
49834;SDS011;35729;52.090;13.162;2023-04-15T08:53:54;27.52;;;22.40;;
49834;SDS011;35729;52.090;13.162;2023-04-15T08:56:25;28.90;;;22.05;;
49834;SDS011;35729;52.090;13.162;2023-04-15T08:58:57;26.45;;;21.38;;
49834;SDS011;35729;52.090;13.162;2023-04-15T09:01:26;28.48;;;21.58;;
49834;SDS011;35729;52.090;13.162;2023-04-15T09:03:56;25.42;;;21.42;;
49834;SDS011;35729;52.090;13.162;2023-04-15T09:06:25;25.77;;;22.15;;
49834;SDS011;35729;52.090;13.162;2023-04-15T09:08:54;28.63;;;22.45;;
49834;SDS011;35729;52.090;13.162;2023-04-15T09:11:25;28.48;;;21.80;;
49834;SDS011;35729;52.090;13.162;2023-04-15T09:13:54;26.33;;;21.92;;
49834;SDS011;35729;52.090;13.162;2023-04-15T09:16:23;26.58;;;22.15;;
49834;SDS011;35729;52.090;13.162;2023-04-15T09:18:52;28.58;;;23.58;;
49834;SDS011;35729;52.090;13.162;2023-04-15T09:21:21;25.38;;;21.90;;
49834;SDS011;35729;52.090;13.162;2023-04-15T09:23:53;27.77;;;21.80;;
49834;SDS011;35729;52.090;13.162;2023-04-15T09:26:33;30.17;;;22.53;;
49834;SDS011;35729;52.090;13.162;2023-04-15T09:29:04;29.08;;;23.80;;
49834;SDS011;35729;52.090;13.162;2023-04-15T09:31:34;25.83;;;21.50;;
49834;SDS011;35729;52.090;13.162;2023-04-15T09:34:03;25.73;;;21.95;;
49834;SDS011;35729;52.090;13.162;2023-04-15T09:36:37;29.83;;;23.80;;
49834;SDS011;35729;52.090;13.162;2023-04-15T09:39:19;26.88;;;22.83;;
49834;SDS011;35729;52.090;13.162;2023-04-15T09:44:36;24.75;;;21.38;;
49834;SDS011;35729;52.090;13.162;2023-04-15T09:47:04;28.52;;;21.50;;
49834;SDS011;35729;52.090;13.162;2023-04-15T09:49:41;23.58;;;20.92;;
49834;SDS011;35729;52.090;13.162;2023-04-15T09:52:22;25.63;;;22.00;;
49834;SDS011;35729;52.090;13.162;2023-04-15T09:54:52;24.83;;;21.10;;
49834;SDS011;35729;52.090;13.162;2023-04-15T09:57:23;26.48;;;22.35;;
49834;SDS011;35729;52.090;13.162;2023-04-15T09:59:52;23.98;;;21.38;;
49834;SDS011;35729;52.090;13.162;2023-04-15T10:02:21;27.10;;;21.90;;
49834;SDS011;35729;52.090;13.162;2023-04-15T10:04:49;25.85;;;22.10;;
49834;SDS011;35729;52.090;13.162;2023-04-15T10:07:19;28.50;;;23.00;;
49834;SDS011;35729;52.090;13.162;2023-04-15T10:09:49;27.25;;;23.25;;
49834;SDS011;35729;52.090;13.162;2023-04-15T10:12:18;25.35;;;21.75;;
49834;SDS011;35729;52.090;13.162;2023-04-15T10:14:51;29.55;;;23.98;;
49834;SDS011;35729;52.090;13.162;2023-04-15T10:17:23;27.30;;;23.02;;
49834;SDS011;35729;52.090;13.162;2023-04-15T10:22:28;27.20;;;23.20;;
49834;SDS011;35729;52.090;13.162;2023-04-15T10:24:57;27.58;;;23.65;;
49834;SDS011;35729;52.090;13.162;2023-04-15T10:27:26;26.00;;;22.65;;
49834;SDS011;35729;52.090;13.162;2023-04-15T10:29:58;27.80;;;22.92;;
49834;SDS011;35729;52.090;13.162;2023-04-15T10:32:28;30.08;;;23.25;;
49834;SDS011;35729;52.090;13.162;2023-04-15T10:34:57;27.80;;;24.13;;
49834;SDS011;35729;52.090;13.162;2023-04-15T10:37:32;27.90;;;24.90;;
49834;SDS011;35729;52.090;13.162;2023-04-15T10:42:53;30.02;;;24.92;;
49834;SDS011;35729;52.090;13.162;2023-04-15T10:45:27;32.95;;;25.83;;
49834;SDS011;35729;52.090;13.162;2023-04-15T10:48:00;27.45;;;23.38;;
49834;SDS011;35729;52.090;13.162;2023-04-15T10:50:30;29.60;;;23.70;;
49834;SDS011;35729;52.090;13.162;2023-04-15T10:53:01;26.98;;;23.08;;
49834;SDS011;35729;52.090;13.162;2023-04-15T10:55:30;27.65;;;22.98;;
49834;SDS011;35729;52.090;13.162;2023-04-15T10:58:00;25.88;;;22.27;;
49834;SDS011;35729;52.090;13.162;2023-04-15T11:00:32;27.60;;;23.38;;
49834;SDS011;35729;52.090;13.162;2023-04-15T11:03:05;25.95;;;22.17;;
49834;SDS011;35729;52.090;13.162;2023-04-15T11:05:48;24.70;;;22.00;;
49834;SDS011;35729;52.090;13.162;2023-04-15T11:08:19;24.80;;;21.52;;
49834;SDS011;35729;52.090;13.162;2023-04-15T11:10:51;24.15;;;21.25;;
49834;SDS011;35729;52.090;13.162;2023-04-15T11:13:21;25.75;;;22.48;;
49834;SDS011;35729;52.090;13.162;2023-04-15T11:15:59;28.17;;;23.90;;
49834;SDS011;35729;52.090;13.162;2023-04-15T11:18:32;26.63;;;22.13;;
49834;SDS011;35729;52.090;13.162;2023-04-15T11:21:02;25.80;;;23.00;;
49834;SDS011;35729;52.090;13.162;2023-04-15T11:23:34;26.65;;;22.30;;
49834;SDS011;35729;52.090;13.162;2023-04-15T11:26:05;28.17;;;22.38;;
49834;SDS011;35729;52.090;13.162;2023-04-15T11:28:36;25.73;;;22.02;;
49834;SDS011;35729;52.090;13.162;2023-04-15T11:31:10;24.35;;;20.08;;
49834;SDS011;35729;52.090;13.162;2023-04-15T11:33:46;25.08;;;20.50;;
49834;SDS011;35729;52.090;13.162;2023-04-15T11:36:23;24.17;;;21.30;;
49834;SDS011;35729;52.090;13.162;2023-04-15T11:38:53;22.38;;;19.95;;
49834;SDS011;35729;52.090;13.162;2023-04-15T11:41:22;23.40;;;20.90;;
49834;SDS011;35729;52.090;13.162;2023-04-15T11:43:51;19.75;;;17.38;;
49834;SDS011;35729;52.090;13.162;2023-04-15T11:46:27;21.00;;;17.20;;
49834;SDS011;35729;52.090;13.162;2023-04-15T11:48:56;20.42;;;17.40;;
49834;SDS011;35729;52.090;13.162;2023-04-15T11:51:24;18.80;;;16.80;;
49834;SDS011;35729;52.090;13.162;2023-04-15T11:53:53;18.80;;;16.80;;
49834;SDS011;35729;52.090;13.162;2023-04-15T11:56:22;20.05;;;17.23;;
49834;SDS011;35729;52.090;13.162;2023-04-15T11:58:58;18.60;;;16.00;;
49834;SDS011;35729;52.090;13.162;2023-04-15T12:01:32;21.33;;;18.95;;
49834;SDS011;35729;52.090;13.162;2023-04-15T12:04:09;20.35;;;18.25;;
49834;SDS011;35729;52.090;13.162;2023-04-15T12:06:38;20.33;;;17.98;;
49834;SDS011;35729;52.090;13.162;2023-04-15T12:09:07;18.65;;;16.80;;
49834;SDS011;35729;52.090;13.162;2023-04-15T12:11:41;18.63;;;16.80;;
49834;SDS011;35729;52.090;13.162;2023-04-15T12:14:12;20.30;;;18.17;;
49834;SDS011;35729;52.090;13.162;2023-04-15T12:16:48;22.02;;;19.65;;
49834;SDS011;35729;52.090;13.162;2023-04-15T12:19:21;21.35;;;19.05;;
49834;SDS011;35729;52.090;13.162;2023-04-15T12:21:52;19.50;;;17.42;;
49834;SDS011;35729;52.090;13.162;2023-04-15T12:24:24;17.92;;;16.02;;
49834;SDS011;35729;52.090;13.162;2023-04-15T12:26:53;18.58;;;16.60;;
49834;SDS011;35729;52.090;13.162;2023-04-15T12:29:24;20.23;;;18.10;;
49834;SDS011;35729;52.090;13.162;2023-04-15T12:31:57;21.00;;;17.02;;
49834;SDS011;35729;52.090;13.162;2023-04-15T12:34:32;24.08;;;20.10;;
49834;SDS011;35729;52.090;13.162;2023-04-15T12:37:02;22.17;;;19.73;;
49834;SDS011;35729;52.090;13.162;2023-04-15T12:39:34;30.92;;;22.55;;
49834;SDS011;35729;52.090;13.162;2023-04-15T12:42:03;49.58;;;31.42;;
49834;SDS011;35729;52.090;13.162;2023-04-15T12:44:32;26.73;;;21.05;;
49834;SDS011;35729;52.090;13.162;2023-04-15T12:47:04;30.55;;;21.05;;
49834;SDS011;35729;52.090;13.162;2023-04-15T12:49:34;33.25;;;24.88;;
49834;SDS011;35729;52.090;13.162;2023-04-15T12:52:03;28.73;;;23.48;;
49834;SDS011;35729;52.090;13.162;2023-04-15T12:54:32;24.75;;;21.05;;
49834;SDS011;35729;52.090;13.162;2023-04-15T12:57:01;22.60;;;19.00;;
49834;SDS011;35729;52.090;13.162;2023-04-15T12:59:30;28.85;;;21.83;;
49834;SDS011;35729;52.090;13.162;2023-04-15T13:01:58;25.13;;;20.63;;
49834;SDS011;35729;52.090;13.162;2023-04-15T13:04:29;22.42;;;18.25;;
49834;SDS011;35729;52.090;13.162;2023-04-15T13:06:58;19.35;;;16.05;;
49834;SDS011;35729;52.090;13.162;2023-04-15T13:09:26;19.65;;;17.25;;
49834;SDS011;35729;52.090;13.162;2023-04-15T13:11:55;23.15;;;18.23;;
49834;SDS011;35729;52.090;13.162;2023-04-15T13:14:24;22.05;;;18.35;;
49834;SDS011;35729;52.090;13.162;2023-04-15T13:16:52;22.80;;;20.05;;
49834;SDS011;35729;52.090;13.162;2023-04-15T13:19:22;27.30;;;20.83;;
49834;SDS011;35729;52.090;13.162;2023-04-15T13:21:53;22.58;;;18.65;;
49834;SDS011;35729;52.090;13.162;2023-04-15T13:24:21;23.02;;;17.92;;
49834;SDS011;35729;52.090;13.162;2023-04-15T13:26:50;23.83;;;17.48;;
49834;SDS011;35729;52.090;13.162;2023-04-15T13:29:18;25.58;;;20.60;;
49834;SDS011;35729;52.090;13.162;2023-04-15T13:31:47;21.17;;;17.65;;
49834;SDS011;35729;52.090;13.162;2023-04-15T13:34:15;24.83;;;19.27;;
49834;SDS011;35729;52.090;13.162;2023-04-15T13:36:44;21.90;;;17.10;;
49834;SDS011;35729;52.090;13.162;2023-04-15T13:39:15;20.00;;;17.50;;
49834;SDS011;35729;52.090;13.162;2023-04-15T13:41:43;17.30;;;14.90;;
49834;SDS011;35729;52.090;13.162;2023-04-15T13:44:12;17.30;;;14.50;;
49834;SDS011;35729;52.090;13.162;2023-04-15T13:46:41;18.75;;;15.50;;
49834;SDS011;35729;52.090;13.162;2023-04-15T13:49:10;19.45;;;15.98;;
49834;SDS011;35729;52.090;13.162;2023-04-15T13:51:38;22.20;;;17.42;;
49834;SDS011;35729;52.090;13.162;2023-04-15T13:54:06;23.10;;;17.45;;
49834;SDS011;35729;52.090;13.162;2023-04-15T13:56:38;19.48;;;16.70;;
49834;SDS011;35729;52.090;13.162;2023-04-15T13:59:06;20.63;;;17.60;;
49834;SDS011;35729;52.090;13.162;2023-04-15T14:01:35;19.23;;;16.50;;
49834;SDS011;35729;52.090;13.162;2023-04-15T14:04:05;23.00;;;18.60;;
49834;SDS011;35729;52.090;13.162;2023-04-15T14:06:33;18.48;;;16.20;;
49834;SDS011;35729;52.090;13.162;2023-04-15T14:09:02;17.52;;;15.52;;
49834;SDS011;35729;52.090;13.162;2023-04-15T14:11:30;18.30;;;16.05;;
49834;SDS011;35729;52.090;13.162;2023-04-15T14:14:03;18.95;;;15.57;;
49834;SDS011;35729;52.090;13.162;2023-04-15T14:16:32;19.63;;;16.38;;
49834;SDS011;35729;52.090;13.162;2023-04-15T14:19:01;19.33;;;16.15;;
49834;SDS011;35729;52.090;13.162;2023-04-15T14:21:29;19.95;;;17.52;;
49834;SDS011;35729;52.090;13.162;2023-04-15T14:23:58;18.83;;;15.77;;
49834;SDS011;35729;52.090;13.162;2023-04-15T14:26:27;18.55;;;16.02;;
49834;SDS011;35729;52.090;13.162;2023-04-15T14:28:55;18.67;;;16.77;;